createdAt,value
2018-08-22T00:00:54.431Z,70.27
2018-08-22T00:03:28.784Z,69.74
2018-08-22T00:06:03.125Z,70.08
2018-08-22T00:08:44.616Z,70.78
2018-08-22T00:11:19.276Z,70.80
2018-08-22T00:13:54.164Z,70.53
2018-08-22T00:16:29.308Z,70.69
2018-08-22T00:19:04.231Z,71.52
2018-08-22T00:21:38.537Z,70.75
2018-08-22T00:24:13.000Z,70.52
2018-08-22T00:26:47.445Z,70.87
2018-08-22T00:29:22.009Z,71.27
2018-08-22T00:31:56.591Z,71.71
2018-08-22T00:34:31.197Z,71.16
2018-08-22T00:37:05.760Z,71.35
2018-08-22T00:39:40.743Z,71.92
2018-08-22T00:42:15.685Z,71.97
2018-08-22T00:44:50.493Z,72.04
2018-08-22T00:47:25.400Z,71.92
2018-08-22T00:49:59.932Z,71.50
2018-08-22T00:52:34.300Z,72.12
2018-08-22T00:55:08.904Z,71.53
2018-08-22T00:57:43.440Z,71.77
2018-08-22T01:00:18.116Z,71.78
2018-08-22T01:02:52.466Z,72.02
2018-08-22T01:05:27.178Z,71.74
2018-08-22T01:08:01.616Z,72.30
2018-08-22T01:10:36.027Z,71.85
2018-08-22T01:13:10.624Z,71.69
2018-08-22T01:15:45.029Z,71.92
2018-08-22T01:18:19.866Z,72.24
2018-08-22T01:20:54.487Z,71.92
2018-08-22T01:23:29.624Z,72.14
2018-08-22T01:26:04.296Z,72.19
2018-08-22T01:28:38.709Z,72.08
2018-08-22T01:31:13.410Z,72.41
2018-08-22T01:33:48.180Z,72.56
2018-08-22T01:36:22.531Z,72.41
2018-08-22T01:38:57.112Z,71.85
2018-08-22T01:41:31.565Z,72.30
2018-08-22T01:44:06.335Z,72.50
2018-08-22T01:46:40.932Z,72.88
2018-08-22T01:49:15.695Z,72.89
2018-08-22T01:51:50.551Z,73.10
2018-08-22T01:54:25.293Z,72.86
2018-08-22T01:56:59.964Z,72.84
2018-08-22T01:59:34.575Z,73.30
2018-08-22T02:02:09.403Z,72.67
2018-08-22T02:04:43.933Z,72.66
2018-08-22T02:07:18.388Z,73.21
2018-08-22T02:09:52.842Z,73.74
2018-08-22T02:12:27.313Z,73.63
2018-08-22T02:15:01.894Z,73.49
2018-08-22T02:17:36.757Z,74.18
2018-08-22T02:20:11.325Z,73.40
2018-08-22T02:22:45.905Z,73.99
2018-08-22T02:25:20.551Z,73.77
2018-08-22T02:27:55.441Z,73.22
2018-08-22T02:30:30.024Z,73.11
2018-08-22T02:33:04.476Z,73.32
2018-08-22T02:35:39.318Z,73.77
2018-08-22T02:38:17.994Z,74.29
2018-08-22T02:40:54.139Z,73.46
2018-08-22T02:43:28.556Z,73.45
2018-08-22T02:46:03.416Z,73.99
2018-08-22T02:48:43.632Z,73.90
2018-08-22T02:51:18.285Z,74.17
2018-08-22T02:53:52.869Z,73.46
2018-08-22T02:56:27.585Z,73.73
2018-08-22T02:59:01.983Z,74.05
2018-08-22T03:01:36.964Z,74.59
2018-08-22T03:04:12.112Z,74.11
2018-08-22T03:06:47.021Z,74.48
2018-08-22T03:09:21.472Z,74.40
2018-08-22T03:11:56.091Z,74.74
2018-08-22T03:14:30.936Z,74.33
2018-08-22T03:17:05.860Z,75.12
2018-08-22T03:19:40.288Z,74.42
2018-08-22T03:22:14.989Z,74.96
2018-08-22T03:24:49.641Z,75.20
2018-08-22T03:27:24.651Z,75.34
2018-08-22T03:29:59.325Z,75.10
2018-08-22T03:32:34.485Z,75.17
2018-08-22T03:35:09.280Z,75.14
2018-08-22T03:37:43.594Z,75.69
2018-08-22T03:40:18.330Z,75.14
2018-08-22T03:42:52.752Z,75.28
2018-08-22T03:45:27.416Z,75.71
2018-08-22T03:48:02.044Z,75.89
2018-08-22T03:50:36.720Z,75.88
2018-08-22T03:53:11.108Z,75.76
2018-08-22T03:55:45.617Z,76.38
2018-08-22T03:58:20.315Z,76.59
2018-08-22T04:00:54.896Z,76.31
2018-08-22T04:03:29.891Z,75.78
2018-08-22T04:06:05.073Z,76.33
2018-08-22T04:08:39.503Z,76.28
2018-08-22T04:11:14.029Z,75.97
2018-08-22T04:13:48.565Z,76.62
2018-08-22T04:16:23.337Z,75.94
2018-08-22T04:18:57.848Z,75.74
2018-08-22T04:21:32.141Z,76.55
2018-08-22T04:24:06.820Z,76.31
2018-08-22T04:26:41.661Z,75.92
2018-08-22T04:29:16.354Z,76.02
2018-08-22T04:31:51.284Z,76.15
2018-08-22T04:34:26.084Z,75.98
2018-08-22T04:37:00.400Z,76.59
2018-08-22T04:39:34.887Z,76.50
2018-08-22T04:42:09.254Z,76.87
2018-08-22T04:44:44.006Z,77.13
2018-08-22T04:47:18.531Z,77.15
2018-08-22T04:49:53.089Z,76.40
2018-08-22T04:52:27.363Z,77.09
2018-08-22T04:55:02.212Z,76.83
2018-08-22T04:57:36.889Z,77.19
2018-08-22T05:00:11.678Z,77.18
2018-08-22T05:02:46.488Z,77.32
2018-08-22T05:05:20.916Z,77.62
2018-08-22T05:07:55.736Z,76.79
2018-08-22T05:10:30.229Z,77.65
2018-08-22T05:13:04.741Z,76.86
2018-08-22T05:15:39.280Z,76.52
2018-08-22T05:18:13.550Z,77.29
2018-08-22T05:20:47.972Z,77.08
2018-08-22T05:23:22.570Z,76.47
2018-08-22T05:25:57.091Z,77.01
2018-08-22T05:28:31.907Z,77.37
2018-08-22T05:31:06.428Z,76.65
2018-08-22T05:33:40.785Z,76.79
2018-08-22T05:36:15.189Z,77.19
2018-08-22T05:38:49.915Z,76.87
2018-08-22T05:41:24.636Z,76.83
2018-08-22T05:43:59.387Z,76.34
2018-08-22T05:46:33.733Z,76.24
2018-08-22T05:49:08.201Z,75.57
2018-08-22T05:51:43.107Z,75.53
2018-08-22T05:54:17.609Z,75.70
2018-08-22T05:56:52.288Z,76.14
2018-08-22T05:59:26.805Z,75.41
2018-08-22T06:02:01.317Z,76.30
2018-08-22T06:04:35.700Z,75.40
2018-08-22T06:07:10.208Z,75.12
2018-08-22T06:09:45.052Z,75.70
2018-08-22T06:12:19.578Z,74.60
2018-08-22T06:14:54.060Z,74.14
2018-08-22T06:17:28.589Z,73.89
2018-08-22T06:20:03.291Z,73.52
2018-08-22T06:22:38.219Z,73.94
2018-08-22T06:25:12.860Z,73.14
2018-08-22T06:27:47.777Z,72.39
2018-08-22T06:30:22.380Z,72.97
2018-08-22T06:32:56.956Z,72.51
2018-08-22T06:35:31.978Z,71.55
2018-08-22T06:38:07.110Z,72.12
2018-08-22T06:40:41.617Z,70.96
2018-08-22T06:43:16.061Z,69.33
2018-08-22T06:45:50.711Z,70.85
2018-08-22T06:48:25.225Z,68.41
2018-08-22T06:51:00.162Z,69.89
2018-08-22T06:53:34.586Z,69.80
2018-08-22T06:56:09.041Z,68.68
2018-08-22T06:58:43.696Z,66.98
2018-08-22T07:01:18.585Z,68.04
2018-08-22T07:03:52.867Z,68.30
2018-08-22T07:06:27.162Z,68.40
2018-08-22T07:09:01.600Z,68.10
2018-08-22T07:11:36.320Z,66.56
2018-08-22T07:14:10.837Z,64.87
2018-08-22T07:16:45.627Z,64.92
2018-08-22T07:19:19.896Z,64.84
2018-08-22T07:21:54.209Z,63.67
2018-08-22T07:24:28.495Z,63.76
2018-08-22T07:27:02.800Z,63.68
2018-08-22T07:29:37.682Z,63.40
2018-08-22T07:32:12.420Z,62.58
2018-08-22T07:34:46.944Z,63.58
2018-08-22T07:37:21.392Z,62.03
2018-08-22T07:39:55.669Z,60.89
2018-08-22T07:42:30.232Z,60.75
2018-08-22T07:45:05.212Z,60.63
2018-08-22T07:47:39.599Z,61.77
2018-08-22T07:50:14.310Z,60.43
2018-08-22T07:52:54.361Z,59.44
2018-08-22T07:55:28.901Z,57.39
2018-08-22T07:58:04.232Z,59.53
2018-08-22T08:00:38.891Z,58.16
2018-08-22T08:03:13.816Z,58.70
2018-08-22T08:05:48.524Z,59.60
2018-08-22T08:08:23.998Z,58.92
2018-08-22T08:10:58.776Z,58.50
2018-08-22T08:13:33.648Z,58.07
2018-08-22T08:16:08.188Z,57.34
2018-08-22T08:18:43.061Z,56.49
2018-08-22T08:21:17.580Z,57.91
2018-08-22T08:23:52.016Z,56.46
2018-08-22T08:26:26.566Z,55.15
2018-08-22T08:29:01.192Z,52.84
2018-08-22T08:31:35.603Z,54.96
2018-08-22T08:34:10.053Z,56.64
2018-08-22T08:36:44.692Z,55.95
2018-08-22T08:39:19.641Z,50.96
2018-08-22T08:41:54.561Z,48.61
2018-08-22T08:44:29.555Z,50.34
2018-08-22T08:47:03.848Z,50.81
2018-08-22T08:49:38.257Z,52.94
2018-08-22T08:52:12.848Z,52.00
2018-08-22T08:54:47.688Z,51.13
2018-08-22T08:57:22.722Z,48.41
2018-08-22T08:59:57.314Z,47.29
2018-08-22T09:02:32.381Z,45.53
2018-08-22T09:05:07.561Z,44.59
2018-08-22T09:07:42.311Z,45.46
2018-08-22T09:10:16.733Z,43.87
2018-08-22T09:12:51.401Z,47.15
2018-08-22T09:15:25.664Z,47.59
2018-08-22T09:18:00.117Z,42.88
2018-08-22T09:20:34.855Z,41.19
2018-08-22T09:23:10.279Z,42.16
2018-08-22T09:25:44.802Z,43.83
2018-08-22T09:28:19.142Z,42.13
2018-08-22T09:30:54.028Z,41.54
2018-08-22T09:33:28.648Z,39.90
2018-08-22T09:36:03.316Z,40.97
2018-08-22T09:38:38.512Z,42.12
2018-08-22T09:41:13.486Z,41.91
2018-08-22T09:43:47.797Z,39.34
2018-08-22T09:46:22.153Z,37.20
2018-08-22T09:48:56.476Z,40.74
2018-08-22T09:51:30.954Z,40.42
2018-08-22T09:54:05.353Z,37.99
2018-08-22T09:56:40.121Z,38.07
2018-08-22T09:59:14.559Z,40.63
2018-08-22T10:01:49.228Z,36.37
2018-08-22T10:04:24.264Z,36.22
2018-08-22T10:06:59.430Z,38.06
2018-08-22T10:09:34.465Z,33.35
2018-08-22T10:12:08.968Z,39.81
2018-08-22T10:14:43.744Z,40.41
2018-08-22T10:17:18.219Z,39.80
2018-08-22T10:19:52.941Z,38.57
2018-08-22T10:22:27.768Z,33.79
2018-08-22T10:25:02.170Z,31.71
2018-08-22T10:27:36.737Z,32.92
2018-08-22T10:30:11.137Z,37.65
2018-08-22T10:32:46.278Z,35.02
2018-08-22T10:35:21.032Z,33.27
2018-08-22T10:37:55.569Z,32.49
2018-08-22T10:40:29.886Z,31.63
2018-08-22T10:43:04.690Z,34.83
2018-08-22T10:45:39.587Z,33.98
2018-08-22T10:48:13.960Z,34.45
2018-08-22T10:50:48.592Z,36.93
2018-08-22T10:53:23.239Z,37.21
2018-08-22T10:55:57.697Z,37.55
2018-08-22T10:58:32.321Z,37.26
2018-08-22T11:01:07.052Z,36.36
2018-08-22T11:03:41.848Z,34.78
2018-08-22T11:06:16.472Z,35.48
2018-08-22T11:08:50.901Z,35.40
2018-08-22T11:11:25.310Z,35.47
2018-08-22T11:13:59.602Z,32.01
2018-08-22T11:16:34.153Z,36.09
2018-08-22T11:19:08.991Z,32.11
2018-08-22T11:21:54.888Z,30.98
2018-08-22T11:24:40.805Z,36.10
2018-08-22T11:27:26.752Z,34.42
2018-08-22T11:30:12.581Z,36.84
2018-08-22T11:32:58.353Z,30.40
2018-08-22T11:35:31.928Z,33.28
2018-08-22T11:38:06.448Z,33.67
2018-08-22T11:40:40.840Z,31.57
2018-08-22T11:43:15.232Z,30.79
2018-08-22T11:45:49.888Z,30.76
2018-08-22T11:48:24.417Z,29.96
2018-08-22T11:50:58.847Z,33.15
2018-08-22T11:53:33.244Z,35.36
2018-08-22T11:56:07.941Z,29.44
2018-08-22T11:58:43.545Z,30.84
2018-08-22T12:01:18.292Z,29.46
2018-08-22T12:03:52.702Z,31.82
2018-08-22T12:06:27.388Z,33.70
2018-08-22T12:09:01.848Z,31.91
2018-08-22T12:11:36.172Z,30.58
2018-08-22T12:14:10.796Z,32.76
2018-08-22T12:16:45.765Z,32.57
2018-08-22T12:19:20.036Z,30.47
2018-08-22T12:21:54.368Z,31.96
2018-08-22T12:24:28.841Z,32.53
2018-08-22T12:27:03.382Z,32.12
2018-08-22T12:29:37.865Z,29.50
2018-08-22T12:32:12.313Z,29.57
2018-08-22T12:34:47.277Z,30.38
2018-08-22T12:37:21.942Z,29.86
2018-08-22T12:39:56.474Z,29.29
2018-08-22T12:42:31.091Z,29.59
2018-08-22T12:45:06.737Z,30.40
2018-08-22T12:47:41.013Z,30.81
2018-08-22T12:50:15.851Z,28.27
2018-08-22T12:52:50.552Z,26.83
2018-08-22T12:55:25.438Z,27.23
2018-08-22T12:57:59.734Z,27.86
2018-08-22T13:00:34.061Z,29.74
2018-08-22T13:03:08.382Z,31.00
2018-08-22T13:05:43.528Z,28.61
2018-08-22T13:08:17.948Z,28.14
2018-08-22T13:10:52.389Z,28.84
2018-08-22T13:13:26.841Z,25.91
2018-08-22T13:16:01.330Z,29.97
2018-08-22T13:18:35.735Z,28.23
2018-08-22T13:21:11.276Z,29.98
2018-08-22T13:23:45.747Z,28.69
2018-08-22T13:26:20.220Z,33.06
2018-08-22T13:28:55.064Z,26.52
2018-08-22T13:31:30.143Z,27.12
2018-08-22T13:34:04.693Z,30.26
2018-08-22T13:36:39.086Z,26.26
2018-08-22T13:39:13.908Z,29.85
2018-08-22T13:41:48.684Z,29.74
2018-08-22T13:44:23.408Z,31.59
2018-08-22T13:46:58.162Z,30.82
2018-08-22T13:49:32.688Z,29.59
2018-08-22T13:52:07.515Z,27.91
2018-08-22T13:54:42.473Z,27.04
2018-08-22T13:57:16.926Z,27.79
2018-08-22T13:59:51.535Z,31.18
2018-08-22T14:02:26.267Z,26.54
2018-08-22T14:05:01.221Z,28.94
2018-08-22T14:07:35.524Z,28.86
2018-08-22T14:10:09.949Z,29.90
2018-08-22T14:12:44.721Z,29.18
2018-08-22T14:15:19.067Z,26.64
2018-08-22T14:17:53.947Z,28.36
2018-08-22T14:20:28.643Z,26.60
2018-08-22T14:23:03.261Z,29.88
2018-08-22T14:25:38.672Z,28.38
2018-08-22T14:28:13.445Z,27.73
2018-08-22T14:30:48.808Z,28.75
2018-08-22T14:33:23.265Z,28.57
2018-08-22T14:35:58.160Z,27.06
2018-08-22T14:38:33.046Z,29.85
2018-08-22T14:41:07.474Z,28.38
2018-08-22T14:43:42.164Z,27.29
2018-08-22T14:46:16.624Z,27.07
2018-08-22T14:48:51.035Z,27.34
2018-08-22T14:51:25.640Z,31.99
2018-08-22T14:54:00.499Z,26.96
2018-08-22T14:56:35.275Z,26.52
2018-08-22T14:59:10.221Z,28.52
2018-08-22T15:01:44.920Z,26.34
2018-08-22T15:04:19.625Z,28.17
2018-08-22T15:06:53.920Z,27.45
2018-08-22T15:09:28.732Z,29.07
2018-08-22T15:12:03.602Z,29.77
2018-08-22T15:14:38.097Z,26.99
2018-08-22T15:17:12.953Z,27.27
2018-08-22T15:19:48.094Z,32.18
2018-08-22T15:22:23.126Z,26.87
2018-08-22T15:24:57.736Z,30.23
2018-08-22T15:27:32.318Z,28.93
2018-08-22T15:30:08.056Z,27.05
2018-08-22T15:32:42.812Z,27.79
2018-08-22T15:35:17.181Z,27.30
2018-08-22T15:37:52.133Z,31.02
2018-08-22T15:40:27.259Z,26.48
2018-08-22T15:43:02.022Z,30.33
2018-08-22T15:45:36.747Z,25.98
2018-08-22T15:48:11.094Z,28.97
2018-08-22T15:50:45.730Z,27.15
2018-08-22T15:53:20.518Z,26.47
2018-08-22T15:55:54.829Z,29.03
2018-08-22T15:58:29.528Z,28.29
2018-08-22T16:01:04.456Z,27.29
2018-08-22T16:03:39.101Z,26.83
2018-08-22T16:06:13.450Z,29.13
2018-08-22T16:08:48.090Z,26.22
2018-08-22T16:11:22.990Z,29.52
2018-08-22T16:13:57.521Z,29.96
2018-08-22T16:16:32.861Z,29.86
2018-08-22T16:19:07.465Z,29.62
2018-08-22T16:21:42.438Z,29.25
2018-08-22T16:24:17.199Z,28.60
2018-08-22T16:26:51.736Z,28.87
2018-08-22T16:29:26.260Z,30.56
2018-08-22T16:32:01.656Z,28.01
2018-08-22T16:34:36.132Z,29.12
2018-08-22T16:37:10.832Z,27.95
2018-08-22T16:39:45.392Z,29.60
2018-08-22T16:42:24.366Z,28.67
2018-08-22T16:44:59.043Z,28.80
2018-08-22T16:47:36.853Z,29.00
2018-08-22T16:50:11.577Z,31.08
2018-08-22T16:52:46.120Z,31.22
2018-08-22T16:55:23.188Z,31.45
2018-08-22T16:57:58.100Z,31.20
2018-08-22T17:00:38.663Z,31.94
2018-08-22T17:03:13.246Z,33.40
2018-08-22T17:05:48.537Z,31.99
2018-08-22T17:08:22.935Z,32.68
2018-08-22T17:11:00.873Z,34.52
2018-08-22T17:13:42.558Z,34.94
2018-08-22T17:16:17.332Z,33.79
2018-08-22T17:18:52.132Z,33.71
2018-08-22T17:21:26.992Z,32.44
2018-08-22T17:24:01.452Z,35.38
2018-08-22T17:26:36.100Z,36.21
2018-08-22T17:29:10.480Z,36.69
2018-08-22T17:31:50.272Z,37.65
2018-08-22T17:34:24.649Z,35.92
2018-08-22T17:37:07.900Z,36.43
2018-08-22T17:39:44.296Z,36.84
2018-08-22T17:42:19.040Z,37.08
2018-08-22T17:44:53.460Z,38.58
2018-08-22T17:47:28.188Z,38.61
2018-08-22T17:50:08.702Z,40.82
2018-08-22T17:52:43.573Z,41.48
2018-08-22T17:55:18.097Z,41.54
2018-08-22T17:57:53.196Z,40.24
2018-08-22T18:00:30.848Z,42.19
2018-08-22T18:03:05.621Z,41.40
2018-08-22T18:05:40.276Z,42.25
2018-08-22T18:08:14.846Z,43.24
2018-08-22T18:10:49.453Z,44.28
2018-08-22T18:13:25.379Z,43.98
2018-08-22T18:15:59.786Z,45.09
2018-08-22T18:18:34.797Z,44.63
2018-08-22T18:21:09.844Z,46.75
2018-08-22T18:23:48.561Z,48.38
2018-08-22T18:26:22.848Z,47.70
2018-08-22T18:28:57.144Z,46.52
2018-08-22T18:31:32.250Z,46.96
2018-08-22T18:34:06.580Z,47.77
2018-08-22T18:36:41.021Z,48.23
2018-08-22T18:39:16.428Z,48.24
2018-08-22T18:41:50.700Z,47.90
2018-08-22T18:44:25.350Z,48.58
2018-08-22T18:47:00.564Z,48.27
2018-08-22T18:49:35.322Z,50.43
2018-08-22T18:52:10.132Z,51.11
2018-08-22T18:54:44.868Z,51.35
2018-08-22T18:57:19.873Z,52.40
2018-08-22T18:59:54.278Z,52.47
2018-08-22T19:02:28.964Z,52.30
2018-08-22T19:05:18.262Z,52.52
2018-08-22T19:08:01.137Z,52.59
2018-08-22T19:10:37.306Z,54.19
2018-08-22T19:13:18.891Z,54.39
2018-08-22T19:15:58.859Z,53.87
2018-08-22T19:18:33.333Z,54.52
2018-08-22T19:21:09.538Z,52.93
2018-08-22T19:23:50.004Z,54.89
2018-08-22T19:26:24.512Z,55.28
2018-08-22T19:29:00.360Z,54.70
2018-08-22T19:31:36.488Z,55.22
2018-08-22T19:34:10.785Z,55.00
2018-08-22T19:36:45.132Z,55.60
2018-08-22T19:39:19.592Z,55.36
2018-08-22T19:41:54.000Z,55.37
2018-08-22T19:44:28.445Z,56.32
2018-08-22T19:47:02.800Z,53.91
2018-08-22T19:49:37.385Z,55.41
2018-08-22T19:52:12.528Z,55.62
2018-08-22T19:54:46.800Z,57.27
2018-08-22T19:57:27.368Z,58.07
2018-08-22T20:00:03.307Z,57.83
2018-08-22T20:02:38.600Z,57.44
2018-08-22T20:05:13.565Z,58.92
2018-08-22T20:07:48.089Z,58.48
2018-08-22T20:10:23.570Z,58.11
2018-08-22T20:12:57.953Z,58.50
2018-08-22T20:15:32.648Z,60.00
2018-08-22T20:18:07.437Z,60.41
2018-08-22T20:20:42.509Z,59.68
2018-08-22T20:23:17.141Z,59.41
2018-08-22T20:25:51.566Z,59.39
2018-08-22T20:28:25.872Z,60.39
2018-08-22T20:31:04.568Z,59.77
2018-08-22T20:33:39.364Z,58.65
2018-08-22T20:36:13.933Z,58.40
2018-08-22T20:38:48.717Z,59.94
2018-08-22T20:41:23.404Z,59.57
2018-08-22T20:43:58.212Z,59.51
2018-08-22T20:46:33.020Z,58.88
2018-08-22T20:49:07.390Z,58.78
2018-08-22T20:51:42.045Z,58.80
2018-08-22T20:54:20.775Z,58.76
2018-08-22T20:57:01.565Z,58.69
2018-08-22T20:59:35.952Z,59.98
2018-08-22T21:02:10.699Z,59.46
2018-08-22T21:04:45.239Z,59.32
2018-08-22T21:07:21.940Z,59.39
2018-08-22T21:09:56.256Z,60.51
2018-08-22T21:12:31.133Z,61.38
2018-08-22T21:15:05.876Z,60.94
2018-08-22T21:17:40.221Z,60.85
2018-08-22T21:20:22.676Z,61.88
2018-08-22T21:22:57.544Z,61.26
2018-08-22T21:25:32.101Z,61.62
2018-08-22T21:28:06.568Z,61.93
2018-08-22T21:30:45.547Z,61.80
2018-08-22T21:33:19.892Z,62.22
2018-08-22T21:35:54.731Z,62.29
2018-08-22T21:38:29.254Z,63.07
2018-08-22T21:41:04.396Z,63.35
2018-08-22T21:43:38.664Z,63.12
2018-08-22T21:46:13.365Z,62.85
2018-08-22T21:48:48.081Z,62.25
2018-08-22T21:51:22.580Z,62.20
2018-08-22T21:53:56.928Z,61.37
2018-08-22T21:56:31.443Z,62.24
2018-08-22T21:59:06.190Z,61.74
2018-08-22T22:01:47.367Z,62.45
2018-08-22T22:04:26.381Z,60.27
2018-08-22T22:07:00.689Z,61.81
2018-08-22T22:09:35.528Z,62.57
2018-08-22T22:12:15.136Z,63.02
2018-08-22T22:14:50.073Z,63.62
2018-08-22T22:17:24.532Z,63.09
2018-08-22T22:19:59.013Z,63.75
2018-08-22T22:22:33.470Z,63.42
2018-08-22T22:25:08.368Z,63.92
2018-08-22T22:27:43.756Z,62.95
2018-08-22T22:30:18.120Z,63.34
2018-08-22T22:32:52.654Z,63.22
2018-08-22T22:35:32.696Z,62.35
2018-08-22T22:38:09.616Z,62.86
2018-08-22T22:40:44.249Z,64.02
2018-08-22T22:43:19.259Z,64.28
2018-08-22T22:45:54.160Z,64.09
2018-08-22T22:48:36.643Z,64.58
2018-08-22T22:51:11.524Z,65.30
2018-08-22T22:53:45.876Z,64.95
2018-08-22T22:56:21.888Z,65.15
2018-08-22T22:58:56.230Z,65.56
2018-08-22T23:01:30.636Z,65.52
2018-08-22T23:04:05.361Z,65.58
2018-08-22T23:06:39.987Z,65.94
2018-08-22T23:09:14.660Z,66.33
2018-08-22T23:11:49.015Z,66.15
2018-08-22T23:14:24.192Z,66.14
2018-08-22T23:16:58.771Z,67.10
2018-08-22T23:19:33.082Z,66.77
2018-08-22T23:22:08.151Z,67.37
2018-08-22T23:24:42.624Z,67.36
2018-08-22T23:27:17.735Z,66.62
2018-08-22T23:29:52.783Z,67.12
2018-08-22T23:32:27.152Z,67.16
2018-08-22T23:35:17.464Z,67.34
2018-08-22T23:37:53.512Z,67.75
2018-08-22T23:40:29.980Z,68.23
2018-08-22T23:43:04.430Z,68.57
2018-08-22T23:45:39.299Z,68.32
2018-08-22T23:48:14.742Z,68.15
2018-08-22T23:50:56.116Z,68.74
2018-08-22T23:53:52.587Z,68.70
2018-08-22T23:56:28.660Z,68.87
2018-08-22T23:59:03.203Z,68.46
